createdAt,value
2019-01-30T00:00:55.762Z,99930.70
2019-01-30T00:05:59.836Z,99933.14
2019-01-30T00:11:04.004Z,99931.62
2019-01-30T00:16:08.057Z,99922.08
2019-01-30T00:21:12.104Z,99915.59
2019-01-30T00:26:16.139Z,99918.23
2019-01-30T00:31:20.207Z,99916.75
2019-01-30T00:36:25.154Z,99917.71
2019-01-30T00:41:29.195Z,99915.14
2019-01-30T00:46:33.493Z,99909.77
2019-01-30T00:51:37.581Z,99914.98
2019-01-30T00:56:41.610Z,99908.87
2019-01-30T01:01:45.897Z,99903.69
2019-01-30T01:06:49.984Z,99895.47
2019-01-30T01:11:54.044Z,99899.23
2019-01-30T01:16:58.404Z,99899.35
2019-01-30T01:22:02.453Z,99898.83
2019-01-30T01:27:06.791Z,99891.36
2019-01-30T01:32:11.117Z,99889.02
2019-01-30T01:37:16.212Z,99884.75
2019-01-30T01:42:20.332Z,99878.67
2019-01-30T01:47:24.418Z,99875.78
2019-01-30T01:52:28.459Z,99871.86
2019-01-30T01:57:32.480Z,99868.27
2019-01-30T02:02:36.548Z,99856.67
2019-01-30T02:07:40.734Z,99852.53
2019-01-30T02:12:44.805Z,99850.81
2019-01-30T02:17:49.153Z,99848.34
2019-01-30T02:22:53.296Z,99849.41
2019-01-30T02:27:57.365Z,99841.64
2019-01-30T02:33:01.396Z,99835.87
2019-01-30T02:38:05.524Z,99837.34
2019-01-30T02:43:09.572Z,99831.19
2019-01-30T02:48:13.625Z,99827.44
2019-01-30T02:53:17.934Z,99825.13
2019-01-30T02:58:21.985Z,99824.80
2019-01-30T03:03:26.065Z,99825.43
2019-01-30T03:08:30.307Z,99822.86
2019-01-30T03:13:34.451Z,99817.26
2019-01-30T03:18:38.463Z,99815.98
2019-01-30T03:23:42.891Z,99819.23
2019-01-30T03:28:46.981Z,99819.21
2019-01-30T03:33:51.327Z,99809.78
2019-01-30T03:38:55.456Z,99810.87
2019-01-30T03:43:59.549Z,99805.77
2019-01-30T03:49:03.587Z,99814.94
2019-01-30T03:54:07.625Z,99812.02
2019-01-30T03:59:11.951Z,99800.45
2019-01-30T04:04:15.987Z,99797.67
2019-01-30T04:09:20.064Z,99797.62
2019-01-30T04:14:24.111Z,99802.06
2019-01-30T04:19:28.446Z,99798.77
2019-01-30T04:24:33.013Z,99791.45
2019-01-30T04:29:37.327Z,99778.00
2019-01-30T04:34:41.504Z,99777.88
2019-01-30T04:39:45.511Z,99769.48
2019-01-30T04:44:49.571Z,99774.61
2019-01-30T04:49:53.602Z,99772.78
2019-01-30T04:54:57.666Z,99768.11
2019-01-30T05:00:01.746Z,99775.36
2019-01-30T05:05:07.072Z,99765.00
2019-01-30T05:10:12.088Z,99759.02
2019-01-30T05:15:17.786Z,99757.40
2019-01-30T05:20:21.837Z,99755.41
2019-01-30T05:25:26.304Z,99751.86
2019-01-30T05:30:31.703Z,99745.27
2019-01-30T05:35:36.023Z,99744.41
2019-01-30T05:40:40.074Z,99746.88
2019-01-30T05:45:44.143Z,99744.86
2019-01-30T05:50:48.172Z,99741.31
2019-01-30T05:55:52.232Z,99746.02
2019-01-30T06:00:56.725Z,99750.25
2019-01-30T06:06:00.812Z,99757.01
2019-01-30T06:11:04.879Z,99763.23
2019-01-30T06:16:08.921Z,99762.50
2019-01-30T06:21:13.065Z,99765.11
2019-01-30T06:26:17.328Z,99768.34
2019-01-30T06:31:21.393Z,99757.94
2019-01-30T06:36:25.421Z,99760.33
2019-01-30T06:41:29.825Z,99756.71
2019-01-30T06:46:34.603Z,99754.34
2019-01-30T06:51:46.680Z,99753.22
2019-01-30T06:56:51.189Z,99745.16
2019-01-30T07:01:55.266Z,99737.42
2019-01-30T07:06:59.305Z,99732.78
2019-01-30T07:12:10.339Z,99729.59
2019-01-30T07:17:14.461Z,99733.30
2019-01-30T07:22:18.487Z,99727.36
2019-01-30T07:27:22.641Z,99729.75
2019-01-30T07:32:26.964Z,99732.28
2019-01-30T07:37:33.524Z,99733.10
2019-01-30T07:42:41.838Z,99733.25
2019-01-30T07:47:46.290Z,99738.46
2019-01-30T07:52:50.537Z,99738.97
2019-01-30T07:57:54.641Z,99733.19
2019-01-30T08:02:58.702Z,99740.89
2019-01-30T08:08:03.506Z,99742.83
2019-01-30T08:13:07.584Z,99734.54
2019-01-30T08:18:12.275Z,99732.30
2019-01-30T08:23:16.490Z,99733.28
2019-01-30T08:28:20.701Z,99732.58
2019-01-30T08:33:24.719Z,99729.72
2019-01-30T08:38:28.821Z,99719.55
2019-01-30T08:43:32.875Z,99728.39
2019-01-30T08:48:38.596Z,99735.76
2019-01-30T08:53:42.970Z,99740.53
2019-01-30T08:58:47.094Z,99744.32
2019-01-30T09:03:52.072Z,99742.37
2019-01-30T09:08:56.147Z,99747.71
2019-01-30T09:14:00.423Z,99743.13
2019-01-30T09:19:04.823Z,99737.96
2019-01-30T09:24:08.844Z,99738.42
2019-01-30T09:29:13.158Z,99732.84
2019-01-30T09:34:17.197Z,99728.36
2019-01-30T09:39:21.567Z,99724.53
2019-01-30T09:44:25.606Z,99732.11
2019-01-30T09:49:29.691Z,99720.09
2019-01-30T09:54:33.750Z,99731.90
2019-01-30T09:59:37.710Z,99722.95
2019-01-30T10:04:41.950Z,99715.19
2019-01-30T10:09:46.098Z,99710.56
2019-01-30T10:14:50.157Z,99702.36
2019-01-30T10:19:54.257Z,99697.69
2019-01-30T10:24:58.699Z,99700.83
2019-01-30T10:30:03.767Z,99687.81
2019-01-30T10:35:08.026Z,99678.27
2019-01-30T10:40:14.506Z,99676.81
2019-01-30T10:45:18.843Z,99680.36
2019-01-30T10:50:24.459Z,99677.30
2019-01-30T10:55:29.874Z,99683.44
2019-01-30T11:00:39.637Z,99679.31
2019-01-30T11:05:44.414Z,99675.20
2019-01-30T11:10:50.792Z,99668.09
2019-01-30T11:15:54.529Z,99665.71
2019-01-30T11:20:58.560Z,99660.19
2019-01-30T11:26:02.718Z,99648.20
2019-01-30T11:31:07.690Z,99641.42
2019-01-30T11:36:11.866Z,99633.39
2019-01-30T11:41:15.995Z,99621.03
2019-01-30T11:46:20.054Z,99601.17
2019-01-30T11:51:24.568Z,99603.80
2019-01-30T11:56:29.723Z,99591.95
2019-01-30T12:01:33.783Z,99590.80
2019-01-30T12:06:37.933Z,99586.98
2019-01-30T12:11:42.500Z,99585.52
2019-01-30T12:16:46.573Z,99583.53
2019-01-30T12:21:50.885Z,99584.75
2019-01-30T12:26:54.908Z,99580.78
2019-01-30T12:31:58.980Z,99571.81
2019-01-30T12:37:03.192Z,99562.84
2019-01-30T12:42:07.562Z,99561.30
2019-01-30T12:47:19.661Z,99558.49
2019-01-30T12:52:17.721Z,99560.04
2019-01-30T12:57:22.023Z,99544.02
2019-01-30T13:02:26.060Z,99533.49
2019-01-30T13:07:30.500Z,99539.74
2019-01-30T13:12:34.595Z,99538.52
2019-01-30T13:17:38.659Z,99540.75
2019-01-30T13:22:42.879Z,99528.51
2019-01-30T13:27:46.902Z,99534.41
2019-01-30T13:32:50.989Z,99524.23
2019-01-30T13:37:56.521Z,99520.48
2019-01-30T13:43:00.606Z,99522.34
2019-01-30T13:48:08.285Z,99522.03
2019-01-30T13:53:14.341Z,99513.64
2019-01-30T13:58:18.029Z,99516.33
2019-01-30T14:03:22.089Z,99509.73
2019-01-30T14:08:28.085Z,99514.27
2019-01-30T14:13:32.112Z,99517.43
2019-01-30T14:18:36.363Z,99503.53
2019-01-30T14:23:40.769Z,99491.47
2019-01-30T14:28:45.075Z,99496.19
2019-01-30T14:33:49.222Z,99495.35
2019-01-30T14:38:53.565Z,99497.41
2019-01-30T14:43:57.684Z,99502.51
2019-01-30T14:49:01.735Z,99509.81
2019-01-30T14:54:05.755Z,99508.44
2019-01-30T14:59:09.879Z,99504.87
2019-01-30T15:04:14.008Z,99507.27
2019-01-30T15:09:18.009Z,99499.95
2019-01-30T15:14:22.005Z,99490.33
2019-01-30T15:19:26.353Z,99492.09
2019-01-30T15:24:30.310Z,99497.47
2019-01-30T15:29:34.352Z,99507.66
2019-01-30T15:34:39.449Z,99500.66
2019-01-30T15:39:43.762Z,99502.59
2019-01-30T15:44:47.862Z,99498.80
2019-01-30T15:49:51.889Z,99500.64
2019-01-30T15:54:55.918Z,99501.89
2019-01-30T16:00:00.334Z,99515.61
2019-01-30T16:05:05.897Z,99517.12
2019-01-30T16:10:11.015Z,99515.43
2019-01-30T16:15:18.947Z,99513.44
2019-01-30T16:20:22.987Z,99511.61
2019-01-30T16:25:27.072Z,99516.88
2019-01-30T16:30:33.217Z,99512.93
2019-01-30T16:35:37.269Z,99523.45
2019-01-30T16:40:41.369Z,99514.67
2019-01-30T16:45:45.411Z,99514.77
2019-01-30T16:50:49.536Z,99508.27
2019-01-30T16:55:53.536Z,99512.77
2019-01-30T17:00:58.422Z,99518.75
2019-01-30T17:06:07.446Z,99510.91
2019-01-30T17:11:08.240Z,99503.34
2019-01-30T17:16:12.253Z,99515.50
2019-01-30T17:21:16.659Z,99521.23
2019-01-30T17:26:21.027Z,99532.52
2019-01-30T17:31:29.768Z,99536.26
2019-01-30T17:36:34.093Z,99535.48
2019-01-30T17:41:38.635Z,99528.92
2019-01-30T17:46:43.119Z,99533.72
2019-01-30T17:51:47.419Z,99530.80
2019-01-30T17:56:51.445Z,99524.16
2019-01-30T18:01:55.462Z,99512.98
2019-01-30T18:06:59.522Z,99520.70
2019-01-30T18:12:04.246Z,99518.73
2019-01-30T18:17:08.602Z,99528.05
2019-01-30T18:22:14.105Z,99531.34
2019-01-30T18:27:18.122Z,99531.69
2019-01-30T18:32:22.404Z,99531.00
2019-01-30T18:37:26.437Z,99519.73
2019-01-30T18:42:30.508Z,99520.27
2019-01-30T18:47:34.502Z,99519.68
2019-01-30T18:52:38.680Z,99518.05
2019-01-30T18:57:43.433Z,99523.59
2019-01-30T19:02:48.265Z,99523.06
2019-01-30T19:07:52.572Z,99527.00
2019-01-30T19:12:56.775Z,99527.55
2019-01-30T19:18:00.870Z,99520.30
2019-01-30T19:23:07.014Z,99521.67
2019-01-30T19:28:11.184Z,99512.83
2019-01-30T19:33:15.277Z,99513.43
2019-01-30T19:38:19.391Z,99512.03
2019-01-30T19:43:23.462Z,99509.58
2019-01-30T19:48:27.565Z,99507.08
2019-01-30T19:53:31.722Z,99506.23
2019-01-30T19:58:36.833Z,99504.63
2019-01-30T20:03:42.130Z,99507.94
2019-01-30T20:08:46.330Z,99510.41
2019-01-30T20:13:50.728Z,99513.19
2019-01-30T20:18:54.791Z,99510.09
2019-01-30T20:23:59.406Z,99511.44
2019-01-30T20:29:03.521Z,99513.76
2019-01-30T20:34:10.376Z,99517.34
2019-01-30T20:39:14.511Z,99513.80
2019-01-30T20:44:18.542Z,99520.98
2019-01-30T20:49:22.612Z,99511.43
2019-01-30T20:54:26.737Z,99523.79
2019-01-30T20:59:30.720Z,99520.56
2019-01-30T21:04:35.122Z,99516.86
2019-01-30T21:09:39.956Z,99518.86
2019-01-30T21:14:44.778Z,99519.70
2019-01-30T21:19:49.445Z,99515.76
2019-01-30T21:24:53.579Z,99529.52
2019-01-30T21:29:58.179Z,99527.51
2019-01-30T21:35:02.590Z,99535.84
2019-01-30T21:40:07.970Z,99526.84
2019-01-30T21:45:14.729Z,99526.55
2019-01-30T21:50:19.448Z,99528.34
2019-01-30T21:55:24.033Z,99541.09
2019-01-30T22:00:28.941Z,99526.46
2019-01-30T22:05:33.016Z,99520.39
2019-01-30T22:10:37.034Z,99514.09
2019-01-30T22:15:41.567Z,99510.70
2019-01-30T22:20:45.719Z,99519.34
2019-01-30T22:25:50.014Z,99515.21
2019-01-30T22:30:54.082Z,99512.68
2019-01-30T22:35:58.136Z,99519.70
2019-01-30T22:41:02.201Z,99517.29
2019-01-30T22:46:06.365Z,99521.69
2019-01-30T22:51:10.410Z,99518.84
2019-01-30T22:56:14.457Z,99521.06
2019-01-30T23:01:36.561Z,99522.70
2019-01-30T23:07:05.021Z,99526.80
2019-01-30T23:12:28.324Z,99515.46
2019-01-30T23:18:28.234Z,99519.94
2019-01-30T23:24:12.114Z,99516.54
2019-01-30T23:29:52.201Z,99511.11
2019-01-30T23:35:31.179Z,99518.21
2019-01-30T23:41:19.162Z,99513.91
2019-01-30T23:46:52.352Z,99516.47
2019-01-30T23:52:40.902Z,99511.97
2019-01-30T23:58:27.640Z,99517.62
